sensor_id;sensor_type;location;lat;lon;timestamp;temperature;humidity
15298;DHT22;7750;48.796;9.026;2024-01-10T09:40:08;1.30;60.30
15298;DHT22;7750;48.796;9.026;2024-01-10T09:45:10;1.60;60.20
15298;DHT22;7750;48.796;9.026;2024-01-10T09:50:13;1.80;59.80
15298;DHT22;7750;48.796;9.026;2024-01-10T10:15:59;2.90;59.30
15298;DHT22;7750;48.796;9.026;2024-01-10T10:21:14;3.20;59.30
15298;DHT22;7750;48.796;9.026;2024-01-10T10:36:42;4.00;59.10
15298;DHT22;7750;48.796;9.026;2024-01-10T11:35:23;6.40;58.10
15298;DHT22;7750;48.796;9.026;2024-01-10T11:40:45;6.80;57.30
15298;DHT22;7750;48.796;9.026;2024-01-10T11:56:40;7.70;56.70
15298;DHT22;7750;48.796;9.026;2024-01-10T12:01:42;8.10;55.90
15298;DHT22;7750;48.796;9.026;2024-01-10T12:06:45;8.30;56.20
15298;DHT22;7750;48.796;9.026;2024-01-10T12:11:45;8.60;55.80
15298;DHT22;7750;48.796;9.026;2024-01-10T12:16:47;8.90;55.50
15298;DHT22;7750;48.796;9.026;2024-01-10T12:21:49;9.10;55.60
15298;DHT22;7750;48.796;9.026;2024-01-10T12:26:50;9.40;55.20
15298;DHT22;7750;48.796;9.026;2024-01-10T12:31:51;9.60;54.90
15298;DHT22;7750;48.796;9.026;2024-01-10T12:36:54;9.90;55.00
15298;DHT22;7750;48.796;9.026;2024-01-10T12:41:58;10.10;54.10
15298;DHT22;7750;48.796;9.026;2024-01-10T12:46:59;10.30;53.40
15298;DHT22;7750;48.796;9.026;2024-01-10T12:52:02;10.50;53.60
15298;DHT22;7750;48.796;9.026;2024-01-10T12:57:24;10.80;53.80
15298;DHT22;7750;48.796;9.026;2024-01-10T13:23:00;11.80;52.10
15298;DHT22;7750;48.796;9.026;2024-01-10T13:33:23;12.00;51.40
15298;DHT22;7750;48.796;9.026;2024-01-10T14:15:21;12.00;50.10
15298;DHT22;7750;48.796;9.026;2024-01-10T14:20:22;11.90;49.90
15298;DHT22;7750;48.796;9.026;2024-01-10T14:25:24;11.70;49.40
15298;DHT22;7750;48.796;9.026;2024-01-10T14:30:33;11.40;49.80
15298;DHT22;7750;48.796;9.026;2024-01-10T14:35:41;11.30;49.70
15298;DHT22;7750;48.796;9.026;2024-01-10T14:45:52;10.90;49.40
15298;DHT22;7750;48.796;9.026;2024-01-10T14:50:53;10.70;49.30
15298;DHT22;7750;48.796;9.026;2024-01-10T15:11:25;9.90;50.00
15298;DHT22;7750;48.796;9.026;2024-01-10T15:26:46;9.80;50.00
15298;DHT22;7750;48.796;9.026;2024-01-10T15:36:58;9.40;49.40
15298;DHT22;7750;48.796;9.026;2024-01-10T15:41:59;9.00;49.40
15298;DHT22;7750;48.796;9.026;2024-01-10T15:46:59;8.70;49.70
15298;DHT22;7750;48.796;9.026;2024-01-10T15:52:00;8.40;50.00
15298;DHT22;7750;48.796;9.026;2024-01-10T16:02:09;8.00;50.30
15298;DHT22;7750;48.796;9.026;2024-01-10T16:07:10;7.70;50.40
15298;DHT22;7750;48.796;9.026;2024-01-10T16:12:11;7.50;50.50
15298;DHT22;7750;48.796;9.026;2024-01-10T16:27:34;7.00;51.10
15298;DHT22;7750;48.796;9.026;2024-01-10T16:32:34;6.80;51.20
15298;DHT22;7750;48.796;9.026;2024-01-10T16:37:35;6.60;51.40
15298;DHT22;7750;48.796;9.026;2024-01-10T16:42:36;6.50;51.60
15298;DHT22;7750;48.796;9.026;2024-01-10T16:47:37;6.40;51.80
15298;DHT22;7750;48.796;9.026;2024-01-10T16:52:37;6.20;51.90
15298;DHT22;7750;48.796;9.026;2024-01-10T16:57:38;6.10;52.10
15298;DHT22;7750;48.796;9.026;2024-01-10T17:02:41;6.00;52.20
15298;DHT22;7750;48.796;9.026;2024-01-10T17:07:41;5.90;52.40
15298;DHT22;7750;48.796;9.026;2024-01-10T17:12:42;5.80;52.40
15298;DHT22;7750;48.796;9.026;2024-01-10T17:17:45;5.70;52.60
15298;DHT22;7750;48.796;9.026;2024-01-10T17:22:47;5.50;52.60
15298;DHT22;7750;48.796;9.026;2024-01-10T17:27:49;5.40;52.60
15298;DHT22;7750;48.796;9.026;2024-01-10T17:32:49;5.20;52.70
15298;DHT22;7750;48.796;9.026;2024-01-10T17:37:50;5.00;52.80
15298;DHT22;7750;48.796;9.026;2024-01-10T17:42:52;4.90;53.10
15298;DHT22;7750;48.796;9.026;2024-01-10T17:47:52;4.80;53.20
15298;DHT22;7750;48.796;9.026;2024-01-10T17:52:53;4.70;53.30
15298;DHT22;7750;48.796;9.026;2024-01-10T17:57:54;4.60;53.40
15298;DHT22;7750;48.796;9.026;2024-01-10T18:02:58;4.50;54.10
15298;DHT22;7750;48.796;9.026;2024-01-10T18:07:59;4.40;53.80
15298;DHT22;7750;48.796;9.026;2024-01-10T18:12:59;4.30;53.80
15298;DHT22;7750;48.796;9.026;2024-01-10T18:18:03;4.30;53.80
15298;DHT22;7750;48.796;9.026;2024-01-10T18:23:04;4.20;53.90
15298;DHT22;7750;48.796;9.026;2024-01-10T18:28:04;4.10;54.00
15298;DHT22;7750;48.796;9.026;2024-01-10T18:33:05;4.00;53.90
15298;DHT22;7750;48.796;9.026;2024-01-10T19:40:16;3.00;55.20
15298;DHT22;7750;48.796;9.026;2024-01-10T19:45:20;3.00;55.30
15298;DHT22;7750;48.796;9.026;2024-01-10T20:32:37;2.40;56.50
15298;DHT22;7750;48.796;9.026;2024-01-10T20:47:58;2.20;56.20
15298;DHT22;7750;48.796;9.026;2024-01-10T20:52:59;2.10;56.20
15298;DHT22;7750;48.796;9.026;2024-01-10T21:18:36;1.80;56.70
15298;DHT22;7750;48.796;9.026;2024-01-10T21:23:37;1.70;56.80
15298;DHT22;7750;48.796;9.026;2024-01-10T21:33:48;1.60;57.10
15298;DHT22;7750;48.796;9.026;2024-01-10T21:38:50;1.60;57.10
15298;DHT22;7750;48.796;9.026;2024-01-10T21:43:54;1.50;57.10
15298;DHT22;7750;48.796;9.026;2024-01-10T21:48:57;1.50;57.20
15298;DHT22;7750;48.796;9.026;2024-01-10T21:54:07;1.50;57.20
15298;DHT22;7750;48.796;9.026;2024-01-10T22:36:37;1.00;58.00
15298;DHT22;7750;48.796;9.026;2024-01-10T22:41:38;1.00;57.60
15298;DHT22;7750;48.796;9.026;2024-01-10T22:51:47;0.80;57.80
15298;DHT22;7750;48.796;9.026;2024-01-10T23:02:19;0.70;57.80
15298;DHT22;7750;48.796;9.026;2024-01-10T23:07:21;0.70;58.10
